createdAt,value
2022-10-02T00:00:48.799Z,0.00
2022-10-02T00:01:47.650Z,0.00
2022-10-02T00:02:48.494Z,0.00
2022-10-02T00:03:46.267Z,0.00
2022-10-02T00:04:49.138Z,0.00
2022-10-02T00:05:47.934Z,0.00
2022-10-02T00:06:48.409Z,0.00
2022-10-02T00:07:48.069Z,0.00
2022-10-02T00:08:47.048Z,0.00
2022-10-02T00:09:48.405Z,0.00
2022-10-02T00:10:46.018Z,0.00
2022-10-02T00:11:46.171Z,0.00
2022-10-02T00:12:45.988Z,0.00
2022-10-02T00:13:45.978Z,0.00
2022-10-02T00:14:45.961Z,0.00
2022-10-02T00:15:45.983Z,0.00
2022-10-02T00:16:46.012Z,0.00
2022-10-02T00:17:45.947Z,0.00
2022-10-02T00:18:45.898Z,0.00
2022-10-02T00:19:45.921Z,0.00
2022-10-02T00:20:45.891Z,0.00
2022-10-02T00:21:45.910Z,0.00
2022-10-02T00:22:45.966Z,0.00
2022-10-02T00:23:48.511Z,0.00
2022-10-02T00:24:46.047Z,0.00
2022-10-02T00:25:45.841Z,0.00
2022-10-02T00:26:46.949Z,0.00
2022-10-02T00:27:45.921Z,0.00
2022-10-02T00:28:45.962Z,0.00
2022-10-02T00:29:46.284Z,0.00
2022-10-02T00:30:45.813Z,0.00
2022-10-02T00:31:45.827Z,0.00
2022-10-02T00:32:45.764Z,0.00
2022-10-02T00:33:45.773Z,0.00
2022-10-02T00:34:45.744Z,0.00
2022-10-02T00:35:45.754Z,0.00
2022-10-02T00:36:45.734Z,0.00
2022-10-02T00:37:45.726Z,0.00
2022-10-02T00:38:45.745Z,0.00
2022-10-02T00:39:45.709Z,0.00
2022-10-02T00:40:45.702Z,0.00
2022-10-02T00:41:46.934Z,0.00
2022-10-02T00:42:46.996Z,0.00
2022-10-02T00:43:47.447Z,0.00
2022-10-02T00:44:45.678Z,0.00
2022-10-02T00:45:45.794Z,0.00
2022-10-02T00:46:51.927Z,0.00
2022-10-02T00:47:47.347Z,0.00
2022-10-02T00:48:47.344Z,0.00
2022-10-02T00:49:48.519Z,0.00
2022-10-02T00:50:46.481Z,0.00
2022-10-02T00:51:45.725Z,0.00
2022-10-02T00:52:46.437Z,0.00
2022-10-02T00:53:46.536Z,0.00
2022-10-02T00:54:45.562Z,0.00
2022-10-02T00:55:45.525Z,0.00
2022-10-02T00:56:45.528Z,0.00
2022-10-02T00:57:45.536Z,0.00
2022-10-02T00:58:45.500Z,0.00
2022-10-02T00:59:45.483Z,0.00
2022-10-02T01:00:45.509Z,0.00
2022-10-02T01:01:47.364Z,0.00
2022-10-02T01:02:46.473Z,0.00
2022-10-02T01:03:45.559Z,0.00
2022-10-02T01:04:46.843Z,0.00
2022-10-02T01:05:48.109Z,0.00
2022-10-02T01:06:46.865Z,0.00
2022-10-02T01:07:45.424Z,0.00
2022-10-02T01:08:49.015Z,0.00
2022-10-02T01:09:47.753Z,0.00
2022-10-02T01:10:45.534Z,0.00
2022-10-02T01:11:47.411Z,0.00
2022-10-02T01:12:46.366Z,0.00
2022-10-02T01:13:47.915Z,0.00
2022-10-02T01:14:45.483Z,0.00
2022-10-02T01:15:46.694Z,0.00
2022-10-02T01:16:45.385Z,0.00
2022-10-02T01:17:48.384Z,0.00
2022-10-02T01:18:45.280Z,0.00
2022-10-02T01:19:45.261Z,0.00
2022-10-02T01:20:45.266Z,0.00
2022-10-02T01:21:46.530Z,0.00
2022-10-02T01:22:45.634Z,0.00
2022-10-02T01:23:47.948Z,0.00
2022-10-02T01:24:46.120Z,0.00
2022-10-02T01:25:47.452Z,0.00
2022-10-02T01:26:45.251Z,0.00
2022-10-02T01:27:46.728Z,0.00
2022-10-02T01:28:45.202Z,0.00
2022-10-02T01:29:46.256Z,0.00
2022-10-02T01:30:46.666Z,0.00
2022-10-02T01:31:46.515Z,0.00
2022-10-02T01:32:45.942Z,0.00
2022-10-02T01:33:45.672Z,0.00
2022-10-02T01:34:48.117Z,0.00
2022-10-02T01:35:46.440Z,0.00
2022-10-02T01:36:46.158Z,0.00
2022-10-02T01:37:45.942Z,0.00
2022-10-02T01:38:46.024Z,0.00
2022-10-02T01:39:46.452Z,0.00
2022-10-02T01:40:45.054Z,0.00
2022-10-02T01:41:45.044Z,0.00
2022-10-02T01:42:45.034Z,0.00
2022-10-02T01:43:45.046Z,0.00
2022-10-02T01:44:45.015Z,0.00
2022-10-02T01:45:45.076Z,0.00
2022-10-02T01:46:44.995Z,0.00
2022-10-02T01:47:44.985Z,0.00
2022-10-02T01:48:44.984Z,0.00
2022-10-02T01:49:44.966Z,0.00
2022-10-02T01:50:44.955Z,0.00
2022-10-02T01:51:44.928Z,0.00
2022-10-02T01:52:48.810Z,0.00
2022-10-02T01:53:45.734Z,0.00
2022-10-02T01:54:45.015Z,0.00
2022-10-02T01:55:44.895Z,0.00
2022-10-02T01:56:45.604Z,0.00
2022-10-02T01:57:45.880Z,0.00
2022-10-02T01:58:44.895Z,0.00
2022-10-02T01:59:46.019Z,0.00
2022-10-02T02:00:46.718Z,0.00
2022-10-02T02:01:45.010Z,0.00
2022-10-02T02:02:45.898Z,0.00
2022-10-02T02:03:46.661Z,0.00
2022-10-02T02:04:45.974Z,0.00
2022-10-02T02:05:45.826Z,0.00
2022-10-02T02:06:49.374Z,0.00
2022-10-02T02:07:46.089Z,0.00
2022-10-02T02:08:45.780Z,0.00
2022-10-02T02:09:44.832Z,0.00
2022-10-02T02:10:48.093Z,0.00
2022-10-02T02:11:44.786Z,0.00
2022-10-02T02:12:48.970Z,0.00
2022-10-02T02:13:45.687Z,0.00
2022-10-02T02:14:44.724Z,0.00
2022-10-02T02:15:44.678Z,0.00
2022-10-02T02:16:44.729Z,0.00
2022-10-02T02:17:44.679Z,0.00
2022-10-02T02:18:44.641Z,0.00
2022-10-02T02:19:44.681Z,0.00
2022-10-02T02:20:44.625Z,0.00
2022-10-02T02:21:44.631Z,0.00
2022-10-02T02:22:44.627Z,0.00
2022-10-02T02:23:44.591Z,0.00
2022-10-02T02:24:45.490Z,0.00
2022-10-02T02:25:44.926Z,0.00
2022-10-02T02:26:49.713Z,0.00
2022-10-02T02:27:47.384Z,0.00
2022-10-02T02:28:44.691Z,0.00
2022-10-02T02:29:44.607Z,0.00
2022-10-02T02:30:47.167Z,0.00
2022-10-02T02:31:46.426Z,0.00
2022-10-02T02:32:45.930Z,0.00
2022-10-02T02:33:44.621Z,0.00
2022-10-02T02:34:45.343Z,0.00
2022-10-02T02:35:44.580Z,0.00
2022-10-02T02:36:44.496Z,0.00
2022-10-02T02:37:44.539Z,0.00
2022-10-02T02:38:47.463Z,0.00
2022-10-02T02:39:45.531Z,0.00
2022-10-02T02:40:46.357Z,0.00
2022-10-02T02:41:46.161Z,0.00
2022-10-02T02:42:45.279Z,0.00
2022-10-02T02:43:46.282Z,0.00
2022-10-02T02:44:45.633Z,0.00
2022-10-02T02:45:44.798Z,0.00
2022-10-02T02:46:49.164Z,0.00
2022-10-02T02:47:45.485Z,0.00
2022-10-02T02:48:46.223Z,0.00
2022-10-02T02:49:48.392Z,0.00
2022-10-02T02:50:44.821Z,0.00
2022-10-02T02:51:44.487Z,0.00
2022-10-02T02:52:45.664Z,0.00
2022-10-02T02:53:44.386Z,0.00
2022-10-02T02:54:46.239Z,0.00
2022-10-02T02:55:45.238Z,0.00
2022-10-02T02:56:44.630Z,0.00
2022-10-02T02:57:44.404Z,0.00
2022-10-02T02:58:45.126Z,0.00
2022-10-02T02:59:45.642Z,0.00
2022-10-02T03:00:45.430Z,0.00
2022-10-02T03:01:44.380Z,0.00
2022-10-02T03:02:46.572Z,0.00
2022-10-02T03:03:45.075Z,0.00
2022-10-02T03:04:48.355Z,0.00
2022-10-02T03:05:45.365Z,0.00
2022-10-02T03:06:44.253Z,0.00
2022-10-02T03:07:45.105Z,0.00
2022-10-02T03:08:44.355Z,0.00
2022-10-02T03:09:44.995Z,0.00
2022-10-02T03:10:46.784Z,0.00
2022-10-02T03:11:45.128Z,0.00
2022-10-02T03:12:44.105Z,0.00
2022-10-02T03:13:44.931Z,0.00
2022-10-02T03:14:44.078Z,0.00
2022-10-02T03:15:44.060Z,0.00
2022-10-02T03:16:44.052Z,0.00
2022-10-02T03:17:44.022Z,0.00
2022-10-02T03:18:44.020Z,0.00
2022-10-02T03:19:44.102Z,0.00
2022-10-02T03:20:43.990Z,0.00
2022-10-02T03:21:44.006Z,0.00
2022-10-02T03:22:44.033Z,0.00
2022-10-02T03:23:43.961Z,0.00
2022-10-02T03:24:46.001Z,0.00
2022-10-02T03:25:44.845Z,0.00
2022-10-02T03:26:44.622Z,0.00
2022-10-02T03:27:44.262Z,0.00
2022-10-02T03:28:55.658Z,0.00
2022-10-02T03:29:45.016Z,0.00
2022-10-02T03:30:43.913Z,0.00
2022-10-02T03:31:43.970Z,0.00
2022-10-02T03:32:43.887Z,0.00
2022-10-02T03:33:44.845Z,0.00
2022-10-02T03:34:43.949Z,0.00
2022-10-02T03:35:43.898Z,0.00
2022-10-02T03:36:46.096Z,0.00
2022-10-02T03:37:43.858Z,0.00
2022-10-02T03:38:50.111Z,0.00
2022-10-02T03:39:46.649Z,0.00
2022-10-02T03:40:44.692Z,0.00
2022-10-02T03:41:44.462Z,0.00
2022-10-02T03:42:43.942Z,0.00
2022-10-02T03:43:44.180Z,0.00
2022-10-02T03:44:43.896Z,0.00
2022-10-02T03:45:51.302Z,0.00
2022-10-02T03:46:45.613Z,0.00
2022-10-02T03:47:44.731Z,0.00
2022-10-02T03:48:46.911Z,0.00
2022-10-02T03:49:45.172Z,0.00
2022-10-02T03:50:45.250Z,0.00
2022-10-02T03:51:44.598Z,0.00
2022-10-02T03:52:44.624Z,0.00
2022-10-02T03:53:45.891Z,0.00
2022-10-02T03:54:43.738Z,0.00
2022-10-02T03:55:44.637Z,0.00
2022-10-02T03:56:43.772Z,0.00
2022-10-02T03:57:44.514Z,0.00
2022-10-02T03:58:43.714Z,0.00
2022-10-02T03:59:44.359Z,0.00
2022-10-02T04:00:45.262Z,0.00
2022-10-02T04:01:48.953Z,0.00
2022-10-02T04:02:45.588Z,0.00
2022-10-02T04:03:44.489Z,0.00
2022-10-02T04:04:47.165Z,0.00
2022-10-02T04:05:46.444Z,0.00
2022-10-02T04:06:43.830Z,0.00
2022-10-02T04:07:43.645Z,0.00
2022-10-02T04:08:46.024Z,0.00
2022-10-02T04:09:47.397Z,0.00
2022-10-02T04:10:44.053Z,0.00
2022-10-02T04:11:44.385Z,0.00
2022-10-02T04:12:44.410Z,0.00
2022-10-02T04:13:44.856Z,0.00
2022-10-02T04:14:43.485Z,0.00
2022-10-02T04:15:44.485Z,0.00
2022-10-02T04:16:45.187Z,0.00
2022-10-02T04:17:43.396Z,0.00
2022-10-02T04:18:44.780Z,0.00
2022-10-02T04:19:44.784Z,0.00
2022-10-02T04:20:43.725Z,0.00
2022-10-02T04:21:45.273Z,0.00
2022-10-02T04:22:43.364Z,0.00
2022-10-02T04:23:44.929Z,0.00
2022-10-02T04:24:43.502Z,0.00
2022-10-02T04:25:48.979Z,0.00
2022-10-02T04:26:43.321Z,0.00
2022-10-02T04:27:47.579Z,0.00
2022-10-02T04:28:43.243Z,1.00
2022-10-02T04:29:43.285Z,0.00
2022-10-02T04:30:43.265Z,0.00
2022-10-02T04:31:43.284Z,0.00
2022-10-02T04:32:43.203Z,1.00
2022-10-02T04:33:43.205Z,1.00
2022-10-02T04:34:43.165Z,1.00
2022-10-02T04:35:43.158Z,1.00
2022-10-02T04:36:43.146Z,2.00
2022-10-02T04:37:43.147Z,2.00
2022-10-02T04:38:43.128Z,2.00
2022-10-02T04:39:46.497Z,1.00
2022-10-02T04:40:43.119Z,2.00
2022-10-02T04:41:43.096Z,1.00
2022-10-02T04:42:43.075Z,1.00
2022-10-02T04:43:43.086Z,4.00
2022-10-02T04:44:43.098Z,5.00
2022-10-02T04:45:43.099Z,4.00
2022-10-02T04:46:43.034Z,2.00
2022-10-02T04:47:43.036Z,4.00
2022-10-02T04:48:43.017Z,5.00
2022-10-02T04:49:43.028Z,7.00
2022-10-02T04:50:43.002Z,10.00
2022-10-02T04:51:42.987Z,10.00
2022-10-02T04:52:42.996Z,11.00
2022-10-02T04:53:42.988Z,13.00
2022-10-02T04:54:42.957Z,14.00
2022-10-02T04:55:42.959Z,20.00
2022-10-02T04:56:42.947Z,23.00
2022-10-02T04:57:42.954Z,26.00
2022-10-02T04:58:42.910Z,31.00
2022-10-02T04:59:42.909Z,36.00
2022-10-02T05:00:42.942Z,39.00
2022-10-02T05:01:42.931Z,45.00
2022-10-02T05:02:42.893Z,55.00
2022-10-02T05:03:42.891Z,65.00
2022-10-02T05:04:42.848Z,70.00
2022-10-02T05:05:42.854Z,78.00
2022-10-02T05:06:42.821Z,83.00
2022-10-02T05:07:42.855Z,88.00
2022-10-02T05:08:42.800Z,92.00
2022-10-02T05:09:42.791Z,99.00
2022-10-02T05:10:42.791Z,108.00
2022-10-02T05:11:42.777Z,121.00
2022-10-02T05:12:42.762Z,138.00
2022-10-02T05:13:42.782Z,169.00
2022-10-02T05:14:42.755Z,195.00
2022-10-02T05:15:42.739Z,216.00
2022-10-02T05:16:42.813Z,227.00
2022-10-02T05:17:42.723Z,248.00
2022-10-02T05:18:42.723Z,273.00
2022-10-02T05:19:42.715Z,315.00
2022-10-02T05:20:42.682Z,342.00
2022-10-02T05:21:42.691Z,335.00
2022-10-02T05:22:42.674Z,320.00
2022-10-02T05:23:42.660Z,326.00
2022-10-02T05:24:42.668Z,385.00
2022-10-02T05:25:42.626Z,461.00
2022-10-02T05:26:42.637Z,538.00
2022-10-02T05:27:42.615Z,548.00
2022-10-02T05:28:42.635Z,551.00
2022-10-02T05:29:42.596Z,550.00
2022-10-02T05:30:42.585Z,592.00
2022-10-02T05:31:42.634Z,620.00
2022-10-02T05:32:42.566Z,484.00
2022-10-02T05:33:47.422Z,543.00
2022-10-02T05:34:43.577Z,727.00
2022-10-02T05:35:42.537Z,855.00
2022-10-02T05:36:42.516Z,1091.00
2022-10-02T05:37:42.550Z,1001.00
2022-10-02T05:38:42.526Z,999.00
2022-10-02T05:39:42.525Z,800.00
2022-10-02T05:40:42.477Z,942.00
2022-10-02T05:41:42.473Z,885.00
2022-10-02T05:42:43.319Z,1036.00
2022-10-02T05:43:42.448Z,1331.00
2022-10-02T05:44:42.457Z,1094.00
2022-10-02T05:45:42.426Z,1023.00
2022-10-02T05:46:42.468Z,1012.00
2022-10-02T05:47:42.416Z,968.00
2022-10-02T05:48:42.398Z,1148.00
2022-10-02T05:49:42.414Z,1269.00
2022-10-02T05:50:42.378Z,1084.00
2022-10-02T05:51:42.370Z,1251.00
2022-10-02T05:52:42.358Z,1290.00
2022-10-02T05:53:42.371Z,1322.00
2022-10-02T05:54:42.361Z,1368.00
2022-10-02T05:55:42.320Z,1394.00
2022-10-02T05:56:42.311Z,1421.00
2022-10-02T05:57:42.299Z,1471.00
2022-10-02T05:58:42.299Z,1444.00
2022-10-02T05:59:42.302Z,1566.00
2022-10-02T06:00:42.343Z,1653.00
2022-10-02T06:01:42.318Z,1737.00
2022-10-02T06:02:42.251Z,1797.00
2022-10-02T06:03:42.245Z,1866.00
2022-10-02T06:04:42.290Z,1922.00
2022-10-02T06:05:42.220Z,2067.00
2022-10-02T06:06:42.203Z,2238.00
2022-10-02T06:07:42.209Z,2238.00
2022-10-02T06:08:42.213Z,2233.00
2022-10-02T06:09:42.283Z,2256.00
2022-10-02T06:10:42.253Z,2337.00
2022-10-02T06:11:42.290Z,2246.00
2022-10-02T06:12:42.165Z,2406.00
2022-10-02T06:13:42.132Z,2282.00
2022-10-02T06:14:42.155Z,2100.00
2022-10-02T06:15:42.128Z,1863.00
2022-10-02T06:16:42.174Z,1712.00
2022-10-02T06:17:42.198Z,2055.00
2022-10-02T06:18:42.108Z,1727.00
2022-10-02T06:19:42.080Z,1423.00
2022-10-02T06:20:42.071Z,1178.00
2022-10-02T06:21:42.076Z,1208.00
2022-10-02T06:22:42.045Z,1283.00
2022-10-02T06:23:42.036Z,1320.00
2022-10-02T06:24:42.028Z,1326.00
2022-10-02T06:25:42.013Z,1313.00
2022-10-02T06:26:42.005Z,1277.00
2022-10-02T06:27:42.102Z,1205.00
2022-10-02T06:28:41.976Z,1169.00
2022-10-02T06:29:41.966Z,1234.00
2022-10-02T06:30:41.988Z,1294.00
2022-10-02T06:31:42.007Z,1349.00
2022-10-02T06:32:41.944Z,1403.00
2022-10-02T06:33:41.944Z,1474.00
2022-10-02T06:34:45.804Z,1551.00
2022-10-02T06:35:42.943Z,1659.00
2022-10-02T06:36:41.891Z,1759.00
2022-10-02T06:37:41.924Z,1851.00
2022-10-02T06:38:41.900Z,1896.00
2022-10-02T06:39:42.013Z,1985.00
2022-10-02T06:40:41.999Z,2142.00
2022-10-02T06:41:42.155Z,2150.00
2022-10-02T06:42:41.921Z,2270.00
2022-10-02T06:43:41.960Z,2341.00
2022-10-02T06:44:41.989Z,2345.00
2022-10-02T06:45:42.043Z,2325.00
2022-10-02T06:46:41.796Z,2362.00
2022-10-02T06:47:41.784Z,2402.00
2022-10-02T06:48:41.781Z,2475.00
2022-10-02T06:49:41.762Z,2490.00
2022-10-02T06:50:41.770Z,2530.00
2022-10-02T06:51:41.771Z,2598.00
2022-10-02T06:52:41.731Z,3029.00
2022-10-02T06:53:41.735Z,2936.00
2022-10-02T06:54:41.710Z,2563.00
2022-10-02T06:55:41.714Z,2371.00
2022-10-02T06:56:41.692Z,2647.00
2022-10-02T06:57:41.679Z,2513.00
2022-10-02T06:58:41.703Z,2459.00
2022-10-02T06:59:41.653Z,2157.00
2022-10-02T07:00:41.809Z,2890.00
2022-10-02T07:01:41.716Z,3398.00
2022-10-02T07:02:41.625Z,4038.00
2022-10-02T07:03:41.654Z,2796.00
2022-10-02T07:04:41.794Z,2375.00
2022-10-02T07:05:41.595Z,2273.00
2022-10-02T07:06:41.652Z,2092.00
2022-10-02T07:07:41.580Z,2393.00
2022-10-02T07:08:41.580Z,2488.00
2022-10-02T07:09:41.556Z,1588.00
2022-10-02T07:10:41.545Z,3644.00
2022-10-02T07:11:41.539Z,3763.00
2022-10-02T07:12:41.525Z,3637.00
2022-10-02T07:13:41.518Z,4010.00
2022-10-02T07:14:41.543Z,2913.00
2022-10-02T07:15:41.486Z,3001.00
2022-10-02T07:16:41.640Z,3032.00
2022-10-02T07:17:41.468Z,2957.00
2022-10-02T07:18:41.460Z,3104.00
2022-10-02T07:19:41.467Z,2841.00
2022-10-02T07:20:41.438Z,2832.00
2022-10-02T07:21:41.428Z,1975.00
2022-10-02T07:22:45.121Z,4214.00
2022-10-02T07:23:41.409Z,3941.00
2022-10-02T07:24:41.466Z,4451.00
2022-10-02T07:25:41.389Z,4532.00
2022-10-02T07:26:41.387Z,4512.00
2022-10-02T07:27:41.368Z,2754.00
2022-10-02T07:28:41.364Z,3574.00
2022-10-02T07:29:41.349Z,1401.00
2022-10-02T07:30:41.357Z,4453.00
2022-10-02T07:31:41.502Z,2893.00
2022-10-02T07:32:41.320Z,2778.00
2022-10-02T07:33:41.299Z,1839.00
2022-10-02T07:34:41.299Z,4374.00
2022-10-02T07:35:41.301Z,4494.00
2022-10-02T07:36:41.292Z,4440.00
2022-10-02T07:37:41.276Z,4350.00
2022-10-02T07:38:41.283Z,4591.00
2022-10-02T07:39:41.257Z,4402.00
2022-10-02T07:40:41.237Z,4792.00
2022-10-02T07:41:41.241Z,4457.00
2022-10-02T07:42:41.210Z,5444.00
2022-10-02T07:43:41.189Z,1713.00
2022-10-02T07:44:41.206Z,4579.00
2022-10-02T07:45:41.234Z,4811.00
2022-10-02T07:46:41.182Z,5229.00
2022-10-02T07:47:41.155Z,4838.00
2022-10-02T07:48:41.132Z,4924.00
2022-10-02T07:49:41.132Z,4840.00
2022-10-02T07:50:41.124Z,4683.00
2022-10-02T07:51:41.137Z,6452.00
2022-10-02T07:52:41.113Z,3798.00
2022-10-02T07:53:41.095Z,4458.00
2022-10-02T07:54:41.078Z,5140.00
2022-10-02T07:55:41.103Z,5490.00
2022-10-02T07:56:41.054Z,5047.00
2022-10-02T07:57:41.054Z,6103.00
2022-10-02T07:58:41.032Z,6350.00
2022-10-02T07:59:41.064Z,3498.00
2022-10-02T08:00:41.053Z,4881.00
2022-10-02T08:01:41.091Z,1914.00
2022-10-02T08:02:40.986Z,3661.00
2022-10-02T08:03:41.041Z,6800.00
2022-10-02T08:04:40.967Z,8444.00
2022-10-02T08:05:40.976Z,5970.00
2022-10-02T08:06:40.965Z,3047.00
2022-10-02T08:07:40.974Z,5617.00
2022-10-02T08:08:40.949Z,4537.00
2022-10-02T08:09:40.958Z,3580.00
2022-10-02T08:10:40.920Z,4552.00
2022-10-02T08:11:40.937Z,3721.00
2022-10-02T08:12:40.917Z,3228.00
2022-10-02T08:13:40.915Z,10135.00
2022-10-02T08:14:40.895Z,7104.00
2022-10-02T08:15:40.879Z,5782.00
2022-10-02T08:16:41.091Z,5010.00
2022-10-02T08:17:40.868Z,4726.00
2022-10-02T08:18:40.840Z,6791.00
2022-10-02T08:19:40.898Z,6881.00
2022-10-02T08:20:40.816Z,8088.00
2022-10-02T08:21:40.804Z,7576.00
2022-10-02T08:22:40.809Z,5995.00
2022-10-02T08:23:40.792Z,5437.00
2022-10-02T08:24:40.781Z,5010.00
2022-10-02T08:25:40.753Z,5916.00
2022-10-02T08:26:41.281Z,5753.00
2022-10-02T08:27:40.804Z,5243.00
2022-10-02T08:28:40.724Z,6078.00
2022-10-02T08:29:40.773Z,5206.00
2022-10-02T08:30:40.696Z,5083.00
2022-10-02T08:31:40.742Z,4847.00
2022-10-02T08:32:40.689Z,5405.00
2022-10-02T08:33:40.664Z,4900.00
2022-10-02T08:34:40.720Z,3818.00
2022-10-02T08:35:40.645Z,3280.00
2022-10-02T08:36:40.659Z,7369.00
2022-10-02T08:37:40.641Z,4374.00
2022-10-02T08:38:40.645Z,8639.00
2022-10-02T08:39:40.605Z,5900.00
2022-10-02T08:40:40.662Z,5584.00
2022-10-02T08:41:40.596Z,5032.00
2022-10-02T08:42:40.594Z,4557.00
2022-10-02T08:43:40.586Z,4958.00
2022-10-02T08:44:40.552Z,4874.00
2022-10-02T08:45:40.604Z,4532.00
2022-10-02T08:46:40.551Z,4132.00
2022-10-02T08:47:40.528Z,2878.00
2022-10-02T08:48:40.517Z,7451.00
2022-10-02T08:49:40.517Z,6280.00
2022-10-02T08:50:40.496Z,6080.00
2022-10-02T08:51:40.489Z,4671.00
2022-10-02T08:52:40.474Z,8146.00
2022-10-02T08:53:40.490Z,5113.00
2022-10-02T08:54:40.467Z,4987.00
2022-10-02T08:55:40.434Z,5532.00
2022-10-02T08:56:40.427Z,6847.00
2022-10-02T08:57:40.420Z,6558.00
2022-10-02T08:58:40.490Z,7123.00
2022-10-02T08:59:40.392Z,7270.00
2022-10-02T09:00:40.417Z,6399.00
2022-10-02T09:01:40.379Z,6630.00
2022-10-02T09:02:40.402Z,6625.00
2022-10-02T09:03:40.358Z,6611.00
2022-10-02T09:04:40.362Z,6954.00
2022-10-02T09:05:40.380Z,6671.00
2022-10-02T09:06:40.340Z,6484.00
2022-10-02T09:07:40.312Z,5854.00
2022-10-02T09:08:40.337Z,5436.00
2022-10-02T09:09:40.320Z,5990.00
2022-10-02T09:10:40.288Z,5528.00
2022-10-02T09:11:40.271Z,6354.00
2022-10-02T09:12:40.257Z,5661.00
2022-10-02T09:13:40.276Z,6159.00
2022-10-02T09:14:40.234Z,5809.00
2022-10-02T09:15:40.236Z,5596.00
2022-10-02T09:16:40.465Z,5877.00
2022-10-02T09:17:40.203Z,6138.00
2022-10-02T09:18:40.194Z,6343.00
2022-10-02T09:19:40.214Z,5722.00
2022-10-02T09:20:40.174Z,4876.00
2022-10-02T09:21:40.156Z,4242.00
2022-10-02T09:22:40.166Z,3938.00
2022-10-02T09:23:40.126Z,3906.00
2022-10-02T09:24:40.129Z,4136.00
2022-10-02T09:25:40.147Z,4073.00
2022-10-02T09:26:40.117Z,3820.00
2022-10-02T09:27:40.097Z,4057.00
2022-10-02T09:28:40.093Z,4942.00
2022-10-02T09:29:40.077Z,4898.00
2022-10-02T09:30:40.076Z,4139.00
2022-10-02T09:31:40.144Z,3579.00
2022-10-02T09:32:40.059Z,3736.00
2022-10-02T09:33:40.038Z,2545.00
2022-10-02T09:34:40.028Z,2380.00
2022-10-02T09:35:40.035Z,4400.00
2022-10-02T09:36:40.358Z,3386.00
2022-10-02T09:37:39.991Z,4351.00
2022-10-02T09:38:39.980Z,4993.00
2022-10-02T09:39:40.001Z,4060.00
2022-10-02T09:40:39.978Z,3422.00
2022-10-02T09:41:39.954Z,3612.00
2022-10-02T09:42:39.973Z,4402.00
2022-10-02T09:43:39.929Z,4289.00
2022-10-02T09:44:39.937Z,5370.00
2022-10-02T09:45:39.969Z,5537.00
2022-10-02T09:46:40.049Z,5084.00
2022-10-02T09:47:39.886Z,5361.00
2022-10-02T09:48:39.872Z,6621.00
2022-10-02T09:49:39.864Z,3127.00
2022-10-02T09:50:39.888Z,7731.00
2022-10-02T09:51:39.855Z,1781.00
2022-10-02T09:52:42.830Z,10199.00
2022-10-02T09:53:39.825Z,5164.00
2022-10-02T09:54:39.813Z,3962.00
2022-10-02T09:55:39.832Z,8600.00
2022-10-02T09:56:39.837Z,1603.00
2022-10-02T09:57:39.817Z,9108.00
2022-10-02T09:58:39.764Z,11209.00
2022-10-02T09:59:39.754Z,3819.00
2022-10-02T10:00:39.837Z,8238.00
2022-10-02T10:01:40.825Z,9057.00
2022-10-02T10:02:39.783Z,10026.00
2022-10-02T10:03:39.739Z,10284.00
2022-10-02T10:05:04.116Z,11494.00
2022-10-02T10:05:40.702Z,6348.00
2022-10-02T10:06:40.029Z,5949.00
2022-10-02T10:07:39.658Z,4268.00
2022-10-02T10:08:39.658Z,8322.00
2022-10-02T10:09:39.647Z,7329.00
2022-10-02T10:10:39.658Z,6487.00
2022-10-02T10:11:39.869Z,5199.00
2022-10-02T10:12:39.614Z,4314.00
2022-10-02T10:13:39.607Z,3500.00
2022-10-02T10:14:39.600Z,3061.00
2022-10-02T10:15:39.608Z,2327.00
2022-10-02T10:16:39.632Z,1703.00
2022-10-02T10:17:39.574Z,1613.00
2022-10-02T10:18:39.581Z,1043.00
2022-10-02T10:19:39.549Z,1320.00
2022-10-02T10:20:39.530Z,1695.00
2022-10-02T10:21:39.995Z,1370.00
2022-10-02T10:22:39.527Z,1603.00
2022-10-02T10:23:39.503Z,1002.00
2022-10-02T10:24:39.503Z,1135.00
2022-10-02T10:25:39.501Z,1036.00
2022-10-02T10:26:39.485Z,1384.00
2022-10-02T10:27:39.494Z,1773.00
2022-10-02T10:28:39.463Z,1999.00
2022-10-02T10:29:39.451Z,2475.00
2022-10-02T10:30:39.454Z,1720.00
2022-10-02T10:31:39.831Z,4610.00
2022-10-02T10:32:39.406Z,9286.00
2022-10-02T10:33:39.390Z,11827.00
2022-10-02T10:34:39.394Z,7336.00
2022-10-02T10:35:39.363Z,7819.00
2022-10-02T10:36:42.205Z,5502.00
2022-10-02T10:37:40.367Z,9498.00
2022-10-02T10:38:39.347Z,8330.00
2022-10-02T10:39:39.325Z,9777.00
2022-10-02T10:40:39.346Z,11735.00
2022-10-02T10:41:39.755Z,5739.00
2022-10-02T10:42:56.376Z,1709.00
2022-10-02T10:43:40.287Z,8703.00
2022-10-02T10:44:39.292Z,8703.00
2022-10-02T10:45:39.333Z,5188.00
2022-10-02T10:46:39.269Z,5351.00
2022-10-02T10:47:39.247Z,5911.00
2022-10-02T10:48:39.253Z,6244.00
2022-10-02T10:49:39.225Z,5912.00
2022-10-02T10:50:39.228Z,5363.00
2022-10-02T10:51:39.413Z,5098.00
2022-10-02T10:52:39.202Z,5039.00
2022-10-02T10:53:39.187Z,5154.00
2022-10-02T10:54:39.168Z,5376.00
2022-10-02T10:55:39.193Z,5066.00
2022-10-02T10:56:39.148Z,4869.00
2022-10-02T10:57:39.138Z,4804.00
2022-10-02T10:58:39.152Z,4751.00
2022-10-02T10:59:39.129Z,4760.00
2022-10-02T11:00:39.210Z,4608.00
2022-10-02T11:01:39.679Z,4461.00
2022-10-02T11:02:39.198Z,4412.00
2022-10-02T11:03:39.074Z,4367.00
2022-10-02T11:04:39.083Z,4141.00
2022-10-02T11:05:39.062Z,3505.00
2022-10-02T11:06:41.837Z,3471.00
2022-10-02T11:07:40.597Z,3479.00
2022-10-02T11:08:39.032Z,3020.00
2022-10-02T11:09:39.022Z,3190.00
2022-10-02T11:10:39.012Z,3165.00
2022-10-02T11:11:39.586Z,2179.00
2022-10-02T11:12:39.162Z,4740.00
2022-10-02T11:13:38.964Z,2708.00
2022-10-02T11:14:38.970Z,2532.00
2022-10-02T11:15:38.943Z,2315.00
2022-10-02T11:16:39.018Z,3094.00
2022-10-02T11:17:38.929Z,2862.00
2022-10-02T11:18:38.918Z,2730.00
2022-10-02T11:19:38.951Z,5108.00
2022-10-02T11:20:38.924Z,4599.00
2022-10-02T11:21:39.282Z,3853.00
2022-10-02T11:22:38.886Z,3729.00
2022-10-02T11:23:38.888Z,3451.00
2022-10-02T11:24:38.883Z,3580.00
2022-10-02T11:25:38.867Z,3350.00
2022-10-02T11:26:38.837Z,3360.00
2022-10-02T11:27:38.832Z,3573.00
2022-10-02T11:28:38.871Z,3076.00
2022-10-02T11:29:38.826Z,2450.00
2022-10-02T11:30:41.674Z,1902.00
2022-10-02T11:31:39.273Z,1573.00
2022-10-02T11:32:38.780Z,1471.00
2022-10-02T11:33:38.778Z,1476.00
2022-10-02T11:34:38.804Z,1497.00
2022-10-02T11:35:38.933Z,1537.00
2022-10-02T11:36:38.739Z,1572.00
2022-10-02T11:37:38.767Z,1586.00
2022-10-02T11:38:38.710Z,1618.00
2022-10-02T11:39:38.784Z,1693.00
2022-10-02T11:40:38.709Z,1798.00
2022-10-02T11:41:39.192Z,1921.00
2022-10-02T11:42:38.682Z,2185.00
2022-10-02T11:43:43.279Z,1102.00
2022-10-02T11:44:39.660Z,8410.00
2022-10-02T11:45:38.676Z,8367.00
2022-10-02T11:46:38.669Z,8289.00
2022-10-02T11:47:38.643Z,8326.00
2022-10-02T11:48:38.672Z,8400.00
2022-10-02T11:49:38.602Z,8360.00
2022-10-02T11:50:38.583Z,8374.00
2022-10-02T11:51:39.114Z,8265.00
2022-10-02T11:52:38.596Z,8237.00
2022-10-02T11:53:38.554Z,8158.00
2022-10-02T11:54:38.543Z,8214.00
2022-10-02T11:55:38.588Z,8224.00
2022-10-02T11:56:38.612Z,8125.00
2022-10-02T11:57:38.581Z,8116.00
2022-10-02T11:58:38.564Z,8177.00
2022-10-02T11:59:38.504Z,8056.00
2022-10-02T12:00:38.476Z,8010.00
2022-10-02T12:01:38.997Z,8156.00
2022-10-02T12:02:38.507Z,10281.00
2022-10-02T12:03:38.467Z,4618.00
2022-10-02T12:04:38.435Z,7907.00
2022-10-02T12:05:38.421Z,8550.00
2022-10-02T12:06:38.421Z,8279.00
2022-10-02T12:07:38.424Z,8466.00
2022-10-02T12:08:38.398Z,8235.00
2022-10-02T12:09:38.388Z,8476.00
2022-10-02T12:10:38.370Z,8146.00
2022-10-02T12:11:38.735Z,8196.00
2022-10-02T12:12:38.381Z,8183.00
2022-10-02T12:13:38.350Z,8098.00
2022-10-02T12:14:38.329Z,8177.00
2022-10-02T12:15:38.343Z,8067.00
2022-10-02T12:16:38.367Z,8068.00
2022-10-02T12:17:38.311Z,8091.00
2022-10-02T12:18:38.311Z,8703.00
2022-10-02T12:19:38.271Z,8758.00
2022-10-02T12:20:38.289Z,9029.00
2022-10-02T12:21:38.610Z,9019.00
2022-10-02T12:22:38.242Z,8627.00
2022-10-02T12:23:38.234Z,8240.00
2022-10-02T12:24:38.215Z,8815.00
2022-10-02T12:25:38.211Z,7474.00
2022-10-02T12:26:38.208Z,9692.00
2022-10-02T12:27:38.201Z,4587.00
2022-10-02T12:28:38.193Z,4261.00
2022-10-02T12:29:38.183Z,4276.00
2022-10-02T12:30:38.165Z,4498.00
2022-10-02T12:31:38.427Z,3930.00
2022-10-02T12:32:38.126Z,4212.00
2022-10-02T12:33:38.124Z,3561.00
2022-10-02T12:34:38.134Z,3954.00